createdAt,value
2023-01-29T00:01:58.492Z,85.25
2023-01-29T00:04:25.849Z,84.55
2023-01-29T00:06:53.034Z,84.75
2023-01-29T00:09:20.259Z,84.89
2023-01-29T00:11:47.713Z,85.09
2023-01-29T00:14:14.879Z,85.33
2023-01-29T00:16:42.281Z,84.71
2023-01-29T00:19:09.436Z,84.64
2023-01-29T00:21:36.525Z,84.99
2023-01-29T00:24:03.758Z,84.54
2023-01-29T00:26:31.317Z,85.11
2023-01-29T00:29:00.719Z,84.59
2023-01-29T00:31:28.365Z,84.37
2023-01-29T00:33:55.604Z,85.16
2023-01-29T00:36:23.421Z,84.89
2023-01-29T00:38:59.901Z,84.58
2023-01-29T00:41:48.545Z,84.33
2023-01-29T00:44:34.866Z,84.64
2023-01-29T00:47:02.601Z,84.80
2023-01-29T00:49:30.630Z,84.63
2023-01-29T00:52:17.493Z,84.66
2023-01-29T00:54:44.553Z,84.62
2023-01-29T00:57:11.663Z,85.14
2023-01-29T00:59:38.966Z,84.63
2023-01-29T01:02:24.503Z,84.94
2023-01-29T01:04:51.691Z,84.80
2023-01-29T01:07:18.767Z,84.44
2023-01-29T01:10:04.384Z,84.50
2023-01-29T01:12:32.289Z,85.04
2023-01-29T01:14:59.348Z,85.48
2023-01-29T01:17:26.602Z,84.74
2023-01-29T01:19:53.998Z,85.13
2023-01-29T01:22:21.114Z,84.80
2023-01-29T01:24:48.588Z,84.73
2023-01-29T01:27:15.804Z,85.14
2023-01-29T01:29:43.046Z,84.85
2023-01-29T01:32:10.205Z,84.42
2023-01-29T01:34:37.555Z,85.11
2023-01-29T01:37:05.004Z,85.18
2023-01-29T01:39:32.126Z,84.25
2023-01-29T01:41:59.286Z,84.62
2023-01-29T01:44:52.801Z,84.36
2023-01-29T01:47:25.322Z,84.53
2023-01-29T01:49:54.856Z,84.75
2023-01-29T01:52:22.278Z,84.86
2023-01-29T01:54:51.508Z,84.31
2023-01-29T01:57:25.349Z,85.17
2023-01-29T01:59:58.864Z,84.70
2023-01-29T02:02:45.193Z,85.23
2023-01-29T02:05:32.263Z,84.60
2023-01-29T02:08:18.659Z,84.61
2023-01-29T02:10:48.715Z,84.91
2023-01-29T02:13:18.101Z,84.55
2023-01-29T02:15:51.503Z,84.76
2023-01-29T02:18:21.694Z,84.47
2023-01-29T02:21:15.094Z,84.43
2023-01-29T02:24:01.836Z,84.34
2023-01-29T02:26:52.215Z,83.96
2023-01-29T02:29:25.602Z,84.95
2023-01-29T02:32:02.492Z,84.91
2023-01-29T02:35:16.612Z,84.28
2023-01-29T02:37:55.572Z,84.96
2023-01-29T02:40:27.509Z,85.04
2023-01-29T02:43:05.134Z,84.50
2023-01-29T02:45:57.486Z,84.87
2023-01-29T02:48:28.345Z,84.52
2023-01-29T02:51:04.662Z,85.01
2023-01-29T02:53:42.459Z,84.72
2023-01-29T02:56:18.004Z,84.94
2023-01-29T02:58:52.143Z,85.21
2023-01-29T03:01:40.139Z,84.58
2023-01-29T03:04:17.126Z,85.17
2023-01-29T03:07:03.575Z,84.71
2023-01-29T03:09:37.036Z,84.92
2023-01-29T03:12:20.179Z,84.99
2023-01-29T03:15:09.302Z,84.79
2023-01-29T03:17:42.337Z,85.11
2023-01-29T03:20:16.561Z,85.45
2023-01-29T03:22:50.754Z,84.81
2023-01-29T03:25:39.445Z,84.95
2023-01-29T03:28:28.479Z,84.56
2023-01-29T03:31:18.939Z,85.01
2023-01-29T03:34:16.711Z,84.50
2023-01-29T03:37:04.122Z,85.36
2023-01-29T03:39:31.492Z,85.20
2023-01-29T03:42:05.136Z,85.17
2023-01-29T03:45:00.641Z,85.53
2023-01-29T03:47:37.961Z,84.93
2023-01-29T03:50:23.454Z,85.01
2023-01-29T03:53:15.513Z,84.57
2023-01-29T03:56:07.472Z,84.91
2023-01-29T03:58:37.890Z,84.96
2023-01-29T04:01:33.855Z,85.54
2023-01-29T04:04:14.195Z,85.27
2023-01-29T04:06:46.735Z,84.91
2023-01-29T04:09:29.507Z,85.30
2023-01-29T04:12:26.530Z,85.63
2023-01-29T04:14:57.294Z,84.98
2023-01-29T04:17:34.971Z,85.38
2023-01-29T04:20:19.131Z,85.61
2023-01-29T04:22:49.181Z,85.13
2023-01-29T04:25:26.785Z,85.64
2023-01-29T04:27:58.280Z,85.19
2023-01-29T04:30:47.116Z,85.35
2023-01-29T04:33:32.334Z,85.76
2023-01-29T04:36:25.936Z,85.62
2023-01-29T04:39:26.705Z,86.13
2023-01-29T04:42:00.139Z,85.84
2023-01-29T04:44:50.531Z,86.33
2023-01-29T04:47:27.281Z,86.51
2023-01-29T04:50:14.915Z,86.22
2023-01-29T04:52:54.533Z,86.88
2023-01-29T04:55:43.883Z,86.53
2023-01-29T04:58:30.137Z,86.85
2023-01-29T05:00:59.103Z,86.71
2023-01-29T05:03:27.749Z,86.55
2023-01-29T05:05:57.555Z,86.93
2023-01-29T05:08:27.517Z,87.26
2023-01-29T05:10:55.850Z,87.23
2023-01-29T05:13:24.339Z,87.44
2023-01-29T05:16:03.135Z,87.87
2023-01-29T05:18:31.269Z,88.15
2023-01-29T05:21:04.331Z,88.03
2023-01-29T05:23:31.645Z,88.33
2023-01-29T05:25:58.736Z,88.62
2023-01-29T05:28:25.919Z,89.42
2023-01-29T05:30:57.482Z,89.21
2023-01-29T05:33:28.538Z,89.71
2023-01-29T05:35:57.047Z,90.07
2023-01-29T05:38:24.638Z,90.26
2023-01-29T05:40:51.907Z,90.91
2023-01-29T05:43:24.209Z,91.24
2023-01-29T05:45:55.244Z,91.42
2023-01-29T05:48:22.640Z,91.28
2023-01-29T05:50:50.047Z,91.92
2023-01-29T05:53:17.145Z,91.58
2023-01-29T05:55:45.810Z,92.69
2023-01-29T05:58:13.306Z,92.58
2023-01-29T06:00:41.016Z,92.82
2023-01-29T06:03:08.413Z,93.30
2023-01-29T06:05:38.548Z,93.59
2023-01-29T06:08:05.876Z,94.87
2023-01-29T06:10:32.961Z,93.84
2023-01-29T06:13:00.114Z,94.06
2023-01-29T06:15:27.698Z,93.51
2023-01-29T06:17:55.619Z,94.00
2023-01-29T06:20:23.609Z,94.32
2023-01-29T06:22:50.734Z,94.39
2023-01-29T06:25:17.956Z,95.22
2023-01-29T06:27:45.059Z,95.11
2023-01-29T06:30:12.748Z,94.39
2023-01-29T06:32:39.852Z,94.61
2023-01-29T06:35:07.892Z,94.67
2023-01-29T06:37:34.952Z,94.94
2023-01-29T06:40:02.202Z,94.67
2023-01-29T06:42:29.501Z,94.98
2023-01-29T06:44:57.053Z,95.05
2023-01-29T06:47:24.903Z,95.12
2023-01-29T06:49:52.535Z,94.31
2023-01-29T06:52:19.689Z,94.38
2023-01-29T06:54:46.811Z,94.56
2023-01-29T06:57:13.980Z,94.78
2023-01-29T06:59:41.128Z,95.31
2023-01-29T07:02:09.807Z,95.04
2023-01-29T07:04:37.978Z,94.94
2023-01-29T07:07:05.605Z,95.01
2023-01-29T07:09:32.788Z,95.28
2023-01-29T07:12:00.670Z,94.82
2023-01-29T07:14:27.701Z,95.33
2023-01-29T07:16:54.764Z,95.04
2023-01-29T07:19:22.030Z,95.73
2023-01-29T07:21:49.112Z,95.20
2023-01-29T07:24:19.642Z,95.76
2023-01-29T07:26:46.859Z,95.76
2023-01-29T07:29:13.933Z,95.53
2023-01-29T07:31:41.059Z,95.38
2023-01-29T07:34:08.265Z,95.47
2023-01-29T07:36:37.346Z,95.19
2023-01-29T07:39:04.519Z,95.18
2023-01-29T07:41:31.550Z,95.18
2023-01-29T07:44:00.129Z,94.98
2023-01-29T07:46:27.348Z,95.05
2023-01-29T07:48:54.455Z,95.36
2023-01-29T07:51:21.724Z,95.25
2023-01-29T07:53:49.024Z,95.55
2023-01-29T07:56:16.224Z,95.31
2023-01-29T07:58:43.278Z,95.45
2023-01-29T08:01:10.520Z,95.09
2023-01-29T08:03:37.760Z,95.34
2023-01-29T08:06:05.148Z,95.57
2023-01-29T08:08:32.269Z,95.15
2023-01-29T08:11:01.947Z,95.18
2023-01-29T08:13:29.032Z,95.62
2023-01-29T08:16:03.502Z,95.17
2023-01-29T08:18:31.754Z,95.82
2023-01-29T08:21:02.662Z,95.48
2023-01-29T08:23:30.731Z,95.01
2023-01-29T08:25:57.970Z,95.52
2023-01-29T08:28:25.203Z,95.28
2023-01-29T08:30:52.384Z,94.77
2023-01-29T08:33:23.769Z,95.00
2023-01-29T08:35:53.747Z,94.79
2023-01-29T08:38:21.300Z,95.27
2023-01-29T08:40:48.413Z,95.28
2023-01-29T08:43:16.356Z,95.29
2023-01-29T08:45:44.540Z,95.13
2023-01-29T08:48:12.061Z,94.96
2023-01-29T08:50:39.193Z,95.02
2023-01-29T08:53:08.374Z,95.09
2023-01-29T08:55:46.483Z,95.53
2023-01-29T08:58:13.466Z,95.27
2023-01-29T09:00:40.512Z,95.37
2023-01-29T09:03:08.176Z,95.28
2023-01-29T09:05:37.256Z,95.43
2023-01-29T09:08:05.831Z,95.26
2023-01-29T09:10:33.069Z,95.55
2023-01-29T09:13:00.274Z,95.79
2023-01-29T09:15:27.644Z,95.56
2023-01-29T09:17:54.714Z,95.63
2023-01-29T09:20:22.246Z,95.58
2023-01-29T09:22:50.844Z,95.98
2023-01-29T09:25:18.343Z,95.80
2023-01-29T09:27:45.561Z,96.04
2023-01-29T09:30:13.038Z,95.94
2023-01-29T09:32:55.509Z,95.85
2023-01-29T09:35:23.889Z,96.25
2023-01-29T09:37:52.374Z,96.22
2023-01-29T09:40:45.153Z,96.38
2023-01-29T09:43:53.376Z,96.33
2023-01-29T09:46:25.738Z,96.13
2023-01-29T09:49:02.158Z,96.06
2023-01-29T09:51:35.735Z,96.04
2023-01-29T09:54:12.097Z,96.25
2023-01-29T09:56:39.376Z,96.08
2023-01-29T09:59:06.486Z,96.29
2023-01-29T10:01:45.687Z,96.60
2023-01-29T10:04:27.270Z,96.19
2023-01-29T10:07:03.042Z,96.43
2023-01-29T10:10:01.107Z,96.07
2023-01-29T10:12:46.437Z,96.33
2023-01-29T10:15:43.839Z,96.63
2023-01-29T10:18:43.245Z,96.04
2023-01-29T10:21:25.172Z,96.44
2023-01-29T10:24:02.387Z,96.02
2023-01-29T10:26:31.574Z,95.98
2023-01-29T10:29:00.722Z,95.94
2023-01-29T10:31:33.425Z,96.34
2023-01-29T10:34:07.715Z,96.53
2023-01-29T10:36:43.174Z,96.72
2023-01-29T10:39:16.548Z,96.69
2023-01-29T10:42:22.174Z,96.54
2023-01-29T10:45:10.343Z,97.29
2023-01-29T10:48:00.119Z,97.18
2023-01-29T10:50:57.856Z,97.12
2023-01-29T10:53:33.997Z,97.07
2023-01-29T10:56:22.758Z,97.63
2023-01-29T10:59:24.983Z,97.70
2023-01-29T11:01:52.177Z,97.20
2023-01-29T11:04:19.674Z,97.71
2023-01-29T11:06:46.982Z,97.40
2023-01-29T11:09:39.369Z,97.78
2023-01-29T11:12:11.098Z,98.07
2023-01-29T11:14:44.378Z,97.74
2023-01-29T11:17:23.563Z,97.86
2023-01-29T11:19:52.311Z,97.97
2023-01-29T11:22:27.364Z,97.59
2023-01-29T11:25:18.185Z,98.16
2023-01-29T11:27:49.553Z,97.84
2023-01-29T11:30:29.204Z,98.01
2023-01-29T11:33:06.804Z,97.73
2023-01-29T11:35:35.673Z,97.84
2023-01-29T11:38:23.895Z,98.15
2023-01-29T11:40:51.821Z,97.88
2023-01-29T11:43:27.916Z,97.87
2023-01-29T11:46:07.445Z,98.27
2023-01-29T11:48:58.954Z,98.39
2023-01-29T11:51:30.237Z,98.23
2023-01-29T11:54:00.709Z,98.52
2023-01-29T11:56:32.990Z,98.40
2023-01-29T11:59:04.666Z,98.44
2023-01-29T12:01:41.415Z,98.78
2023-01-29T12:04:39.393Z,98.75
2023-01-29T12:07:14.473Z,98.36
2023-01-29T12:09:42.017Z,98.53
2023-01-29T12:12:40.170Z,98.34
2023-01-29T12:15:20.025Z,98.73
2023-01-29T12:17:58.436Z,98.54
2023-01-29T12:20:36.198Z,98.41
2023-01-29T12:23:26.404Z,98.42
2023-01-29T12:26:19.608Z,98.39
2023-01-29T12:29:13.072Z,98.27
2023-01-29T12:31:48.996Z,98.27
2023-01-29T12:34:42.326Z,98.57
2023-01-29T12:37:25.297Z,98.04
2023-01-29T12:39:52.740Z,98.43
2023-01-29T12:42:22.781Z,98.50
2023-01-29T12:45:01.350Z,98.71
2023-01-29T12:47:44.076Z,98.41
2023-01-29T12:50:33.319Z,98.75
2023-01-29T12:53:25.461Z,98.73
2023-01-29T12:56:03.130Z,99.24
2023-01-29T12:58:44.361Z,99.41
2023-01-29T13:01:27.780Z,99.28
2023-01-29T13:04:07.086Z,99.12
2023-01-29T13:06:41.824Z,99.57
2023-01-29T13:09:19.771Z,99.25
2023-01-29T13:12:00.834Z,99.79
2023-01-29T13:14:51.515Z,99.93
2023-01-29T13:17:24.553Z,100.00
2023-01-29T13:19:54.502Z,99.79
2023-01-29T13:22:35.411Z,99.75
2023-01-29T13:25:05.427Z,99.58
2023-01-29T13:27:35.303Z,99.89
2023-01-29T13:30:03.051Z,99.59
2023-01-29T13:32:32.935Z,100.00
2023-01-29T13:35:15.441Z,100.00
2023-01-29T13:37:49.328Z,100.00
2023-01-29T13:40:29.299Z,100.00
2023-01-29T13:42:59.937Z,100.00
2023-01-29T13:45:35.406Z,100.00
2023-01-29T13:48:27.170Z,100.00
2023-01-29T13:50:57.222Z,100.00
2023-01-29T13:53:38.373Z,100.00
2023-01-29T13:56:33.539Z,100.00
2023-01-29T13:59:03.114Z,100.00
2023-01-29T14:01:48.394Z,100.00
2023-01-29T14:04:25.788Z,100.00
2023-01-29T14:06:54.974Z,100.00
2023-01-29T14:09:37.284Z,100.00
2023-01-29T14:12:25.136Z,100.00
2023-01-29T14:15:04.511Z,100.00
2023-01-29T14:17:32.114Z,100.00
2023-01-29T14:20:17.396Z,100.00
2023-01-29T14:22:44.747Z,100.00
2023-01-29T14:25:19.946Z,99.93
2023-01-29T14:27:48.831Z,100.00
2023-01-29T14:30:19.045Z,99.90
2023-01-29T14:32:50.055Z,100.00
2023-01-29T14:35:25.765Z,100.00
2023-01-29T14:37:59.676Z,99.71
2023-01-29T14:40:29.975Z,100.00
2023-01-29T14:43:02.508Z,99.92
2023-01-29T14:45:42.081Z,100.00
2023-01-29T14:48:12.005Z,100.00
2023-01-29T14:50:51.501Z,99.96
2023-01-29T14:53:31.877Z,100.00
2023-01-29T14:56:10.660Z,100.00
2023-01-29T14:58:43.966Z,100.00
2023-01-29T15:01:26.045Z,100.00
2023-01-29T15:04:00.595Z,100.00
2023-01-29T15:07:09.267Z,100.00
2023-01-29T15:09:55.646Z,100.00
2023-01-29T15:12:33.516Z,100.00
2023-01-29T15:15:08.301Z,100.00
2023-01-29T15:17:48.251Z,100.00
2023-01-29T15:20:42.160Z,100.00
2023-01-29T15:23:32.383Z,100.00
2023-01-29T15:26:01.876Z,100.00
2023-01-29T15:28:33.320Z,100.00
2023-01-29T15:31:08.031Z,100.00
2023-01-29T15:33:38.761Z,100.00
2023-01-29T15:36:08.050Z,100.00
2023-01-29T15:38:35.854Z,100.00
2023-01-29T15:41:16.374Z,100.00
2023-01-29T15:43:46.336Z,100.00
2023-01-29T15:46:23.293Z,100.00
2023-01-29T15:48:51.812Z,100.00
2023-01-29T15:51:25.500Z,100.00
2023-01-29T15:53:58.673Z,100.00
2023-01-29T15:56:33.725Z,100.00
2023-01-29T15:59:07.318Z,100.00
2023-01-29T16:01:36.472Z,100.00
2023-01-29T16:04:04.490Z,100.00
2023-01-29T16:06:38.105Z,100.00
2023-01-29T16:09:06.420Z,100.00
2023-01-29T16:11:35.890Z,100.00
2023-01-29T16:14:05.084Z,100.00
2023-01-29T16:16:32.576Z,100.00
2023-01-29T16:19:01.268Z,100.00
2023-01-29T16:21:49.026Z,100.00
2023-01-29T16:24:23.481Z,100.00
2023-01-29T16:26:51.905Z,100.00
2023-01-29T16:29:24.910Z,100.00
2023-01-29T16:31:55.186Z,100.00
2023-01-29T16:34:31.066Z,100.00
2023-01-29T16:36:59.130Z,100.00
2023-01-29T16:39:34.023Z,100.00
2023-01-29T16:42:21.134Z,100.00
2023-01-29T16:44:54.652Z,100.00
2023-01-29T16:47:33.200Z,100.00
2023-01-29T16:50:02.393Z,100.00
2023-01-29T16:52:34.500Z,100.00
2023-01-29T16:55:16.732Z,100.00
2023-01-29T16:57:47.093Z,100.00
2023-01-29T17:00:19.179Z,100.00
2023-01-29T17:02:46.304Z,100.00
2023-01-29T17:05:31.674Z,100.00
2023-01-29T17:08:00.433Z,100.00
2023-01-29T17:10:29.373Z,100.00
2023-01-29T17:12:58.213Z,100.00
2023-01-29T17:15:48.654Z,100.00
2023-01-29T17:18:21.627Z,100.00
2023-01-29T17:20:49.488Z,100.00
2023-01-29T17:23:16.950Z,100.00
2023-01-29T17:25:44.775Z,100.00
2023-01-29T17:28:14.318Z,100.00
2023-01-29T17:30:41.624Z,100.00
2023-01-29T17:33:14.951Z,100.00
2023-01-29T17:35:43.484Z,100.00
2023-01-29T17:38:25.546Z,100.00
2023-01-29T17:41:08.465Z,100.00
2023-01-29T17:43:35.616Z,100.00
2023-01-29T17:46:03.262Z,100.00
2023-01-29T17:48:31.430Z,100.00
2023-01-29T17:51:04.801Z,100.00
2023-01-29T17:53:44.899Z,100.00
2023-01-29T17:56:18.589Z,100.00
2023-01-29T17:58:45.776Z,100.00
2023-01-29T18:01:13.966Z,100.00
2023-01-29T18:03:41.130Z,100.00
2023-01-29T18:06:10.093Z,100.00
2023-01-29T18:08:39.416Z,100.00
2023-01-29T18:11:06.534Z,100.00
2023-01-29T18:13:36.333Z,100.00
2023-01-29T18:16:03.815Z,100.00
2023-01-29T18:18:30.966Z,100.00
2023-01-29T18:20:58.147Z,100.00
2023-01-29T18:23:25.296Z,100.00
2023-01-29T18:25:53.022Z,100.00
2023-01-29T18:28:20.239Z,100.00
2023-01-29T18:30:47.780Z,100.00
2023-01-29T18:33:16.660Z,100.00
2023-01-29T18:35:45.446Z,100.00
2023-01-29T18:38:12.640Z,100.00
2023-01-29T18:40:39.979Z,100.00
2023-01-29T18:43:10.342Z,100.00
2023-01-29T18:45:37.466Z,100.00
2023-01-29T18:48:05.378Z,100.00
2023-01-29T18:50:33.163Z,100.00
2023-01-29T18:53:00.847Z,100.00
2023-01-29T18:55:27.972Z,100.00
2023-01-29T18:58:27.339Z,100.00
2023-01-29T19:00:43.205Z,100.00
2023-01-29T19:03:11.432Z,100.00
2023-01-29T19:05:38.576Z,100.00
2023-01-29T19:08:06.167Z,100.00
2023-01-29T19:10:34.601Z,100.00
2023-01-29T19:13:01.931Z,100.00
2023-01-29T19:15:29.036Z,100.00
2023-01-29T19:17:56.637Z,100.00
2023-01-29T19:20:23.802Z,100.00
2023-01-29T19:22:53.653Z,100.00
2023-01-29T19:25:21.146Z,100.00
2023-01-29T19:27:48.478Z,100.00
2023-01-29T19:30:15.885Z,100.00
2023-01-29T19:32:43.299Z,100.00
2023-01-29T19:35:12.670Z,100.00
2023-01-29T19:37:39.858Z,100.00
2023-01-29T19:40:08.427Z,100.00
2023-01-29T19:42:37.620Z,100.00
2023-01-29T19:45:05.830Z,100.00
2023-01-29T19:47:33.922Z,100.00
2023-01-29T19:50:01.164Z,100.00
2023-01-29T19:52:51.523Z,100.00
2023-01-29T19:55:20.908Z,100.00
2023-01-29T19:57:49.143Z,100.00
2023-01-29T20:00:17.700Z,100.00
2023-01-29T20:02:44.867Z,100.00
2023-01-29T20:05:13.234Z,100.00
2023-01-29T20:07:43.080Z,100.00
2023-01-29T20:10:11.700Z,100.00
2023-01-29T20:12:38.885Z,100.00
2023-01-29T20:15:07.542Z,100.00
2023-01-29T20:17:34.675Z,100.00
2023-01-29T20:20:02.536Z,100.00
2023-01-29T20:22:30.037Z,100.00
2023-01-29T20:24:57.542Z,100.00
2023-01-29T20:27:27.520Z,100.00
2023-01-29T20:29:54.521Z,100.00
2023-01-29T20:32:21.704Z,100.00
2023-01-29T20:34:52.251Z,100.00
2023-01-29T20:37:19.841Z,100.00
2023-01-29T20:39:47.583Z,100.00
2023-01-29T20:42:14.780Z,100.00
2023-01-29T20:44:42.329Z,100.00
2023-01-29T20:47:09.538Z,100.00
2023-01-29T20:49:38.802Z,100.00
2023-01-29T20:52:07.814Z,100.00
2023-01-29T20:54:35.133Z,100.00
2023-01-29T20:57:02.264Z,100.00
2023-01-29T20:59:29.537Z,100.00
2023-01-29T21:01:56.988Z,100.00
2023-01-29T21:04:24.139Z,100.00
2023-01-29T21:06:51.426Z,100.00
2023-01-29T21:09:18.473Z,100.00
2023-01-29T21:11:45.677Z,100.00
2023-01-29T21:14:12.898Z,100.00
2023-01-29T21:16:40.623Z,100.00
2023-01-29T21:19:07.793Z,100.00
2023-01-29T21:21:34.938Z,100.00
2023-01-29T21:24:01.980Z,100.00
2023-01-29T21:26:29.134Z,100.00
2023-01-29T21:28:56.423Z,100.00
2023-01-29T21:31:23.649Z,100.00
2023-01-29T21:33:50.814Z,100.00
2023-01-29T21:36:17.976Z,100.00
2023-01-29T21:38:45.281Z,100.00
2023-01-29T21:41:12.431Z,100.00
2023-01-29T21:43:40.052Z,100.00
2023-01-29T21:46:12.249Z,100.00
2023-01-29T21:48:40.450Z,100.00
2023-01-29T21:51:08.041Z,100.00
2023-01-29T21:53:35.414Z,100.00
2023-01-29T21:56:04.744Z,100.00
2023-01-29T21:58:32.423Z,100.00
2023-01-29T22:01:17.934Z,100.00
2023-01-29T22:03:47.491Z,100.00
2023-01-29T22:06:15.512Z,100.00
2023-01-29T22:08:42.831Z,100.00
2023-01-29T22:11:12.453Z,100.00
2023-01-29T22:13:39.669Z,100.00
2023-01-29T22:16:07.346Z,100.00
2023-01-29T22:18:34.812Z,100.00
2023-01-29T22:21:03.121Z,100.00
2023-01-29T22:23:32.052Z,100.00
2023-01-29T22:26:06.491Z,100.00
2023-01-29T22:28:33.603Z,100.00
2023-01-29T22:31:02.335Z,100.00
2023-01-29T22:33:29.531Z,100.00
2023-01-29T22:35:57.390Z,100.00
2023-01-29T22:38:24.636Z,100.00
2023-01-29T22:40:53.168Z,100.00
2023-01-29T22:43:21.132Z,100.00
2023-01-29T22:45:48.642Z,100.00
2023-01-29T22:48:15.916Z,100.00
2023-01-29T22:50:43.017Z,100.00
2023-01-29T22:53:10.236Z,100.00
2023-01-29T22:55:37.285Z,100.00
2023-01-29T22:58:04.372Z,100.00
2023-01-29T23:00:31.416Z,100.00
2023-01-29T23:02:58.509Z,100.00
2023-01-29T23:05:25.718Z,100.00
2023-01-29T23:07:52.904Z,100.00
2023-01-29T23:10:20.195Z,100.00
2023-01-29T23:12:47.358Z,100.00
2023-01-29T23:15:14.529Z,100.00
2023-01-29T23:17:41.661Z,100.00
2023-01-29T23:20:10.968Z,100.00
2023-01-29T23:22:38.511Z,100.00
2023-01-29T23:25:06.252Z,100.00
2023-01-29T23:27:33.272Z,100.00
2023-01-29T23:30:00.365Z,100.00
2023-01-29T23:32:27.484Z,100.00
2023-01-29T23:34:54.591Z,100.00
2023-01-29T23:37:21.620Z,100.00
2023-01-29T23:39:49.361Z,100.00
2023-01-29T23:42:16.413Z,100.00
2023-01-29T23:44:44.323Z,100.00
2023-01-29T23:47:11.646Z,100.00
2023-01-29T23:49:38.869Z,100.00
2023-01-29T23:52:06.331Z,100.00
2023-01-29T23:54:33.436Z,100.00
2023-01-29T23:57:00.445Z,100.00
2023-01-29T23:59:29.081Z,100.00
